sensor_id;sensor_type;location;lat;lon;timestamp;P1;durP1;ratioP1;P2;durP2;ratioP2
75073;SDS011;63652;51.526;5.080;2023-06-24T00:00:44;7.38;;;3.92;;
75073;SDS011;63652;51.526;5.080;2023-06-24T00:03:09;7.85;;;4.30;;
75073;SDS011;63652;51.526;5.080;2023-06-24T00:05:37;7.22;;;4.18;;
75073;SDS011;63652;51.526;5.080;2023-06-24T00:08:04;10.05;;;4.55;;
75073;SDS011;63652;51.526;5.080;2023-06-24T00:10:31;8.60;;;6.25;;
75073;SDS011;63652;51.526;5.080;2023-06-24T00:12:57;9.93;;;5.85;;
75073;SDS011;63652;51.526;5.080;2023-06-24T00:15:26;10.43;;;5.20;;
75073;SDS011;63652;51.526;5.080;2023-06-24T00:17:52;8.90;;;5.22;;
75073;SDS011;63652;51.526;5.080;2023-06-24T00:20:17;6.78;;;4.30;;
75073;SDS011;63652;51.526;5.080;2023-06-24T00:22:45;10.77;;;5.63;;
75073;SDS011;63652;51.526;5.080;2023-06-24T00:25:13;9.50;;;5.40;;
75073;SDS011;63652;51.526;5.080;2023-06-24T00:27:40;10.88;;;5.70;;
75073;SDS011;63652;51.526;5.080;2023-06-24T00:30:06;8.70;;;5.95;;
75073;SDS011;63652;51.526;5.080;2023-06-24T00:32:32;12.73;;;7.60;;
75073;SDS011;63652;51.526;5.080;2023-06-24T00:34:58;9.30;;;5.65;;
75073;SDS011;63652;51.526;5.080;2023-06-24T00:37:25;9.70;;;5.78;;
75073;SDS011;63652;51.526;5.080;2023-06-24T00:39:50;9.68;;;6.32;;
75073;SDS011;63652;51.526;5.080;2023-06-24T00:42:16;7.88;;;5.38;;
75073;SDS011;63652;51.526;5.080;2023-06-24T00:44:42;11.50;;;6.70;;
75073;SDS011;63652;51.526;5.080;2023-06-24T00:47:07;10.68;;;6.85;;
75073;SDS011;63652;51.526;5.080;2023-06-24T00:49:35;9.93;;;5.80;;
75073;SDS011;63652;51.526;5.080;2023-06-24T00:52:01;9.25;;;6.15;;
75073;SDS011;63652;51.526;5.080;2023-06-24T00:54:26;9.60;;;6.13;;
75073;SDS011;63652;51.526;5.080;2023-06-24T00:56:56;11.80;;;6.50;;
75073;SDS011;63652;51.526;5.080;2023-06-24T00:59:22;10.32;;;6.60;;
75073;SDS011;63652;51.526;5.080;2023-06-24T01:01:48;11.52;;;7.03;;
75073;SDS011;63652;51.526;5.080;2023-06-24T01:04:14;12.88;;;6.63;;
75073;SDS011;63652;51.526;5.080;2023-06-24T01:06:41;10.15;;;6.65;;
75073;SDS011;63652;51.526;5.080;2023-06-24T01:09:08;20.48;;;7.97;;
75073;SDS011;63652;51.526;5.080;2023-06-24T01:11:34;12.40;;;6.93;;
75073;SDS011;63652;51.526;5.080;2023-06-24T01:13:59;10.57;;;6.72;;
75073;SDS011;63652;51.526;5.080;2023-06-24T01:19:44;9.43;;;5.80;;
75073;SDS011;63652;51.526;5.080;2023-06-24T01:30:25;10.90;;;5.60;;
75073;SDS011;63652;51.526;5.080;2023-06-24T01:33:00;9.88;;;6.00;;
75073;SDS011;63652;51.526;5.080;2023-06-24T01:35:29;12.65;;;6.28;;
75073;SDS011;63652;51.526;5.080;2023-06-24T01:37:57;8.00;;;5.45;;
75073;SDS011;63652;51.526;5.080;2023-06-24T01:40:30;8.00;;;5.38;;
75073;SDS011;63652;51.526;5.080;2023-06-24T01:42:58;9.43;;;5.43;;
75073;SDS011;63652;51.526;5.080;2023-06-24T01:45:26;6.28;;;4.53;;
75073;SDS011;63652;51.526;5.080;2023-06-24T01:48:04;8.05;;;5.15;;
75073;SDS011;63652;51.526;5.080;2023-06-24T01:50:33;10.52;;;5.85;;
75073;SDS011;63652;51.526;5.080;2023-06-24T01:53:01;9.85;;;5.68;;
75073;SDS011;63652;51.526;5.080;2023-06-24T01:55:30;12.27;;;5.82;;
75073;SDS011;63652;51.526;5.080;2023-06-24T01:57:57;9.75;;;5.63;;
75073;SDS011;63652;51.526;5.080;2023-06-24T02:00:23;10.40;;;6.00;;
75073;SDS011;63652;51.526;5.080;2023-06-24T02:02:49;9.32;;;5.50;;
75073;SDS011;63652;51.526;5.080;2023-06-24T02:05:15;11.15;;;6.22;;
75073;SDS011;63652;51.526;5.080;2023-06-24T02:07:43;7.25;;;4.63;;
75073;SDS011;63652;51.526;5.080;2023-06-24T02:10:09;7.10;;;4.53;;
75073;SDS011;63652;51.526;5.080;2023-06-24T02:12:35;8.48;;;4.47;;
75073;SDS011;63652;51.526;5.080;2023-06-24T02:15:00;7.95;;;4.55;;
75073;SDS011;63652;51.526;5.080;2023-06-24T02:17:27;6.63;;;4.13;;
75073;SDS011;63652;51.526;5.080;2023-06-24T02:19:54;5.50;;;3.60;;
75073;SDS011;63652;51.526;5.080;2023-06-24T02:22:20;7.18;;;4.72;;
75073;SDS011;63652;51.526;5.080;2023-06-24T02:24:46;6.25;;;3.40;;
75073;SDS011;63652;51.526;5.080;2023-06-24T02:27:13;6.28;;;3.47;;
75073;SDS011;63652;51.526;5.080;2023-06-24T02:29:39;6.25;;;3.53;;
75073;SDS011;63652;51.526;5.080;2023-06-24T02:32:05;6.93;;;3.83;;
75073;SDS011;63652;51.526;5.080;2023-06-24T02:34:31;6.47;;;4.10;;
75073;SDS011;63652;51.526;5.080;2023-06-24T02:36:56;5.20;;;3.72;;
75073;SDS011;63652;51.526;5.080;2023-06-24T02:39:22;6.50;;;3.92;;
75073;SDS011;63652;51.526;5.080;2023-06-24T02:41:48;6.82;;;3.83;;
75073;SDS011;63652;51.526;5.080;2023-06-24T02:44:14;6.45;;;4.15;;
75073;SDS011;63652;51.526;5.080;2023-06-24T02:46:40;9.88;;;4.15;;
75073;SDS011;63652;51.526;5.080;2023-06-24T02:49:07;7.78;;;3.75;;
75073;SDS011;63652;51.526;5.080;2023-06-24T02:51:34;6.55;;;3.85;;
75073;SDS011;63652;51.526;5.080;2023-06-24T02:54:00;6.82;;;3.92;;
75073;SDS011;63652;51.526;5.080;2023-06-24T02:56:26;7.45;;;3.97;;
75073;SDS011;63652;51.526;5.080;2023-06-24T02:58:53;9.60;;;4.88;;
75073;SDS011;63652;51.526;5.080;2023-06-24T03:01:18;7.80;;;4.75;;
75073;SDS011;63652;51.526;5.080;2023-06-24T03:03:49;8.68;;;4.20;;
75073;SDS011;63652;51.526;5.080;2023-06-24T03:06:19;8.15;;;4.55;;
75073;SDS011;63652;51.526;5.080;2023-06-24T03:08:45;8.13;;;4.55;;
75073;SDS011;63652;51.526;5.080;2023-06-24T03:11:15;8.98;;;4.70;;
75073;SDS011;63652;51.526;5.080;2023-06-24T03:13:41;10.57;;;4.40;;
75073;SDS011;63652;51.526;5.080;2023-06-24T03:16:07;8.05;;;4.40;;
75073;SDS011;63652;51.526;5.080;2023-06-24T03:18:40;7.55;;;4.30;;
75073;SDS011;63652;51.526;5.080;2023-06-24T03:21:06;8.27;;;4.53;;
75073;SDS011;63652;51.526;5.080;2023-06-24T03:23:32;9.35;;;5.00;;
75073;SDS011;63652;51.526;5.080;2023-06-24T03:25:57;8.07;;;4.50;;
75073;SDS011;63652;51.526;5.080;2023-06-24T03:28:22;8.90;;;4.40;;
75073;SDS011;63652;51.526;5.080;2023-06-24T03:30:48;10.05;;;4.43;;
75073;SDS011;63652;51.526;5.080;2023-06-24T03:33:13;10.75;;;5.05;;
75073;SDS011;63652;51.526;5.080;2023-06-24T03:35:42;7.10;;;4.40;;
75073;SDS011;63652;51.526;5.080;2023-06-24T03:38:07;10.65;;;5.18;;
75073;SDS011;63652;51.526;5.080;2023-06-24T03:40:33;8.60;;;4.95;;
75073;SDS011;63652;51.526;5.080;2023-06-24T03:42:58;10.23;;;4.82;;
75073;SDS011;63652;51.526;5.080;2023-06-24T03:45:23;10.00;;;5.32;;
75073;SDS011;63652;51.526;5.080;2023-06-24T03:47:49;10.10;;;5.70;;
75073;SDS011;63652;51.526;5.080;2023-06-24T03:50:14;7.75;;;5.00;;
75073;SDS011;63652;51.526;5.080;2023-06-24T03:52:40;7.47;;;4.45;;
75073;SDS011;63652;51.526;5.080;2023-06-24T03:55:05;11.00;;;5.53;;
75073;SDS011;63652;51.526;5.080;2023-06-24T03:57:31;8.48;;;5.22;;
75073;SDS011;63652;51.526;5.080;2023-06-24T03:59:56;9.48;;;5.50;;
75073;SDS011;63652;51.526;5.080;2023-06-24T04:02:21;10.27;;;5.78;;
75073;SDS011;63652;51.526;5.080;2023-06-24T04:04:47;9.23;;;5.18;;
75073;SDS011;63652;51.526;5.080;2023-06-24T04:07:16;10.27;;;5.80;;
75073;SDS011;63652;51.526;5.080;2023-06-24T04:12:19;10.57;;;5.97;;
75073;SDS011;63652;51.526;5.080;2023-06-24T04:14:44;10.63;;;5.38;;
75073;SDS011;63652;51.526;5.080;2023-06-24T04:17:10;9.63;;;6.32;;
75073;SDS011;63652;51.526;5.080;2023-06-24T04:19:35;12.70;;;6.80;;
75073;SDS011;63652;51.526;5.080;2023-06-24T04:22:01;11.57;;;6.93;;
75073;SDS011;63652;51.526;5.080;2023-06-24T04:24:26;11.25;;;6.15;;
75073;SDS011;63652;51.526;5.080;2023-06-24T04:26:51;11.52;;;5.95;;
75073;SDS011;63652;51.526;5.080;2023-06-24T04:29:17;14.60;;;6.78;;
75073;SDS011;63652;51.526;5.080;2023-06-24T04:31:42;12.10;;;6.32;;
75073;SDS011;63652;51.526;5.080;2023-06-24T04:34:08;13.07;;;6.20;;
75073;SDS011;63652;51.526;5.080;2023-06-24T04:36:33;12.85;;;6.82;;
75073;SDS011;63652;51.526;5.080;2023-06-24T04:38:59;13.20;;;6.85;;
75073;SDS011;63652;51.526;5.080;2023-06-24T04:41:25;12.93;;;7.30;;
75073;SDS011;63652;51.526;5.080;2023-06-24T04:43:50;12.23;;;6.88;;
75073;SDS011;63652;51.526;5.080;2023-06-24T04:46:15;12.93;;;7.28;;
75073;SDS011;63652;51.526;5.080;2023-06-24T04:48:41;10.93;;;6.53;;
75073;SDS011;63652;51.526;5.080;2023-06-24T04:51:06;14.63;;;7.80;;
75073;SDS011;63652;51.526;5.080;2023-06-24T04:53:32;11.65;;;7.72;;
75073;SDS011;63652;51.526;5.080;2023-06-24T04:55:57;15.20;;;7.13;;
75073;SDS011;63652;51.526;5.080;2023-06-24T04:58:22;16.20;;;7.70;;
75073;SDS011;63652;51.526;5.080;2023-06-24T05:00:48;12.05;;;7.10;;
75073;SDS011;63652;51.526;5.080;2023-06-24T05:03:13;14.00;;;7.80;;
75073;SDS011;63652;51.526;5.080;2023-06-24T05:05:39;15.48;;;8.13;;
75073;SDS011;63652;51.526;5.080;2023-06-24T05:08:04;14.55;;;7.85;;
75073;SDS011;63652;51.526;5.080;2023-06-24T05:10:30;13.73;;;7.63;;
75073;SDS011;63652;51.526;5.080;2023-06-24T05:12:55;13.65;;;7.55;;
75073;SDS011;63652;51.526;5.080;2023-06-24T05:15:20;13.85;;;7.28;;
75073;SDS011;63652;51.526;5.080;2023-06-24T05:17:46;13.93;;;7.80;;
75073;SDS011;63652;51.526;5.080;2023-06-24T05:20:11;13.77;;;7.97;;
75073;SDS011;63652;51.526;5.080;2023-06-24T05:22:37;15.07;;;7.88;;
75073;SDS011;63652;51.526;5.080;2023-06-24T05:25:02;15.27;;;8.07;;
75073;SDS011;63652;51.526;5.080;2023-06-24T05:27:28;13.32;;;8.30;;
75073;SDS011;63652;51.526;5.080;2023-06-24T05:29:53;15.35;;;8.27;;
75073;SDS011;63652;51.526;5.080;2023-06-24T05:32:18;14.85;;;7.65;;
75073;SDS011;63652;51.526;5.080;2023-06-24T05:34:45;13.13;;;6.82;;
75073;SDS011;63652;51.526;5.080;2023-06-24T05:37:11;17.48;;;8.38;;
75073;SDS011;63652;51.526;5.080;2023-06-24T05:39:37;12.75;;;7.55;;
75073;SDS011;63652;51.526;5.080;2023-06-24T05:42:02;12.35;;;6.80;;
75073;SDS011;63652;51.526;5.080;2023-06-24T05:44:28;13.13;;;6.60;;
75073;SDS011;63652;51.526;5.080;2023-06-24T05:46:53;13.43;;;8.07;;
75073;SDS011;63652;51.526;5.080;2023-06-24T05:49:19;12.65;;;7.20;;
75073;SDS011;63652;51.526;5.080;2023-06-24T05:51:44;15.65;;;7.68;;
75073;SDS011;63652;51.526;5.080;2023-06-24T05:54:10;12.32;;;6.90;;
75073;SDS011;63652;51.526;5.080;2023-06-24T05:56:36;12.23;;;6.95;;
75073;SDS011;63652;51.526;5.080;2023-06-24T05:59:02;14.80;;;6.68;;
75073;SDS011;63652;51.526;5.080;2023-06-24T06:01:27;12.90;;;6.80;;
75073;SDS011;63652;51.526;5.080;2023-06-24T06:03:53;14.05;;;7.53;;
75073;SDS011;63652;51.526;5.080;2023-06-24T06:06:18;12.88;;;6.28;;
75073;SDS011;63652;51.526;5.080;2023-06-24T06:08:43;11.07;;;6.47;;
75073;SDS011;63652;51.526;5.080;2023-06-24T06:11:09;10.60;;;5.50;;
75073;SDS011;63652;51.526;5.080;2023-06-24T06:13:34;14.10;;;7.93;;
75073;SDS011;63652;51.526;5.080;2023-06-24T06:15:59;14.88;;;6.85;;
75073;SDS011;63652;51.526;5.080;2023-06-24T06:18:25;10.68;;;6.53;;
75073;SDS011;63652;51.526;5.080;2023-06-24T06:20:50;10.68;;;5.45;;
75073;SDS011;63652;51.526;5.080;2023-06-24T06:23:16;11.55;;;6.38;;
75073;SDS011;63652;51.526;5.080;2023-06-24T06:25:42;10.95;;;6.13;;
75073;SDS011;63652;51.526;5.080;2023-06-24T06:28:07;12.55;;;5.88;;
75073;SDS011;63652;51.526;5.080;2023-06-24T06:30:33;11.68;;;6.70;;
75073;SDS011;63652;51.526;5.080;2023-06-24T06:32:58;12.38;;;6.28;;
75073;SDS011;63652;51.526;5.080;2023-06-24T06:35:24;11.15;;;6.00;;
75073;SDS011;63652;51.526;5.080;2023-06-24T06:37:49;12.73;;;6.25;;
75073;SDS011;63652;51.526;5.080;2023-06-24T06:40:19;12.65;;;5.55;;
75073;SDS011;63652;51.526;5.080;2023-06-24T06:42:48;13.88;;;5.78;;
75073;SDS011;63652;51.526;5.080;2023-06-24T06:45:13;12.25;;;6.53;;
75073;SDS011;63652;51.526;5.080;2023-06-24T06:47:39;12.82;;;5.00;;
75073;SDS011;63652;51.526;5.080;2023-06-24T06:50:04;12.60;;;5.30;;
75073;SDS011;63652;51.526;5.080;2023-06-24T06:52:30;12.38;;;5.78;;
75073;SDS011;63652;51.526;5.080;2023-06-24T06:54:56;10.50;;;5.53;;
75073;SDS011;63652;51.526;5.080;2023-06-24T06:57:22;10.35;;;5.43;;
75073;SDS011;63652;51.526;5.080;2023-06-24T06:59:47;10.50;;;5.57;;
75073;SDS011;63652;51.526;5.080;2023-06-24T07:02:14;11.27;;;5.53;;
75073;SDS011;63652;51.526;5.080;2023-06-24T07:04:40;10.30;;;6.43;;
75073;SDS011;63652;51.526;5.080;2023-06-24T07:07:05;9.35;;;5.28;;
75073;SDS011;63652;51.526;5.080;2023-06-24T07:09:31;10.15;;;5.85;;
75073;SDS011;63652;51.526;5.080;2023-06-24T07:11:56;12.30;;;6.22;;
75073;SDS011;63652;51.526;5.080;2023-06-24T07:14:21;10.25;;;5.40;;
75073;SDS011;63652;51.526;5.080;2023-06-24T07:16:47;11.43;;;6.68;;
75073;SDS011;63652;51.526;5.080;2023-06-24T07:19:12;14.55;;;6.20;;
75073;SDS011;63652;51.526;5.080;2023-06-24T07:21:38;10.90;;;6.05;;
75073;SDS011;63652;51.526;5.080;2023-06-24T07:24:03;13.75;;;6.15;;
75073;SDS011;63652;51.526;5.080;2023-06-24T07:26:29;12.00;;;6.88;;
75073;SDS011;63652;51.526;5.080;2023-06-24T07:28:58;11.10;;;6.22;;
75073;SDS011;63652;51.526;5.080;2023-06-24T07:31:24;11.80;;;6.55;;
75073;SDS011;63652;51.526;5.080;2023-06-24T07:33:49;13.38;;;6.60;;
75073;SDS011;63652;51.526;5.080;2023-06-24T07:36:14;13.23;;;6.18;;
75073;SDS011;63652;51.526;5.080;2023-06-24T07:38:40;12.35;;;6.60;;
75073;SDS011;63652;51.526;5.080;2023-06-24T07:41:05;12.15;;;6.82;;
75073;SDS011;63652;51.526;5.080;2023-06-24T07:43:31;11.63;;;6.75;;
75073;SDS011;63652;51.526;5.080;2023-06-24T07:45:56;13.68;;;6.22;;
75073;SDS011;63652;51.526;5.080;2023-06-24T07:48:21;11.85;;;5.82;;
75073;SDS011;63652;51.526;5.080;2023-06-24T07:50:47;9.65;;;6.05;;
75073;SDS011;63652;51.526;5.080;2023-06-24T07:53:13;12.75;;;6.85;;
75073;SDS011;63652;51.526;5.080;2023-06-24T07:55:38;11.48;;;5.45;;
75073;SDS011;63652;51.526;5.080;2023-06-24T07:58:03;13.52;;;5.65;;
75073;SDS011;63652;51.526;5.080;2023-06-24T08:00:30;10.35;;;5.45;;
75073;SDS011;63652;51.526;5.080;2023-06-24T08:02:57;11.23;;;5.85;;
75073;SDS011;63652;51.526;5.080;2023-06-24T08:05:22;9.63;;;5.30;;
75073;SDS011;63652;51.526;5.080;2023-06-24T08:07:50;11.63;;;6.30;;
75073;SDS011;63652;51.526;5.080;2023-06-24T08:10:15;10.48;;;4.93;;
75073;SDS011;63652;51.526;5.080;2023-06-24T08:12:41;11.38;;;6.45;;
75073;SDS011;63652;51.526;5.080;2023-06-24T08:15:07;13.40;;;6.05;;
75073;SDS011;63652;51.526;5.080;2023-06-24T08:17:33;11.00;;;5.63;;
75073;SDS011;63652;51.526;5.080;2023-06-24T08:19:59;8.88;;;5.05;;
75073;SDS011;63652;51.526;5.080;2023-06-24T08:22:25;12.40;;;5.38;;
75073;SDS011;63652;51.526;5.080;2023-06-24T08:24:50;8.82;;;4.95;;
75073;SDS011;63652;51.526;5.080;2023-06-24T08:27:16;8.65;;;4.20;;
75073;SDS011;63652;51.526;5.080;2023-06-24T08:29:41;11.10;;;4.75;;
75073;SDS011;63652;51.526;5.080;2023-06-24T08:32:07;9.43;;;5.28;;
75073;SDS011;63652;51.526;5.080;2023-06-24T08:34:32;9.25;;;4.57;;
75073;SDS011;63652;51.526;5.080;2023-06-24T08:36:58;8.52;;;5.05;;
75073;SDS011;63652;51.526;5.080;2023-06-24T08:39:23;9.73;;;4.80;;
75073;SDS011;63652;51.526;5.080;2023-06-24T08:41:49;9.30;;;5.03;;
75073;SDS011;63652;51.526;5.080;2023-06-24T08:44:14;12.82;;;6.38;;
75073;SDS011;63652;51.526;5.080;2023-06-24T08:46:40;9.50;;;5.07;;
75073;SDS011;63652;51.526;5.080;2023-06-24T08:51:41;7.93;;;4.55;;
75073;SDS011;63652;51.526;5.080;2023-06-24T08:54:07;9.38;;;4.57;;
75073;SDS011;63652;51.526;5.080;2023-06-24T08:56:35;10.77;;;4.97;;
75073;SDS011;63652;51.526;5.080;2023-06-24T08:59:04;8.88;;;4.60;;
75073;SDS011;63652;51.526;5.080;2023-06-24T09:01:30;8.25;;;4.85;;
75073;SDS011;63652;51.526;5.080;2023-06-24T09:03:55;8.60;;;4.45;;
75073;SDS011;63652;51.526;5.080;2023-06-24T09:06:21;7.68;;;4.18;;
75073;SDS011;63652;51.526;5.080;2023-06-24T09:08:56;8.40;;;4.40;;
75073;SDS011;63652;51.526;5.080;2023-06-24T09:11:23;9.65;;;6.18;;
75073;SDS011;63652;51.526;5.080;2023-06-24T09:13:54;10.15;;;5.07;;
75073;SDS011;63652;51.526;5.080;2023-06-24T09:16:20;7.80;;;5.00;;
75073;SDS011;63652;51.526;5.080;2023-06-24T09:18:49;10.95;;;4.50;;
75073;SDS011;63652;51.526;5.080;2023-06-24T09:21:25;10.38;;;5.20;;
75073;SDS011;63652;51.526;5.080;2023-06-24T09:23:54;7.40;;;4.55;;
75073;SDS011;63652;51.526;5.080;2023-06-24T09:26:27;8.32;;;4.65;;
75073;SDS011;63652;51.526;5.080;2023-06-24T09:28:54;9.68;;;4.72;;
75073;SDS011;63652;51.526;5.080;2023-06-24T09:31:20;9.98;;;5.35;;
75073;SDS011;63652;51.526;5.080;2023-06-24T09:33:48;8.93;;;4.70;;
75073;SDS011;63652;51.526;5.080;2023-06-24T09:36:16;8.63;;;5.40;;
75073;SDS011;63652;51.526;5.080;2023-06-24T09:38:42;8.85;;;4.88;;
75073;SDS011;63652;51.526;5.080;2023-06-24T09:41:09;7.63;;;4.47;;
75073;SDS011;63652;51.526;5.080;2023-06-24T09:43:35;7.05;;;3.50;;
75073;SDS011;63652;51.526;5.080;2023-06-24T09:46:02;7.75;;;4.47;;
75073;SDS011;63652;51.526;5.080;2023-06-24T09:48:28;10.30;;;4.80;;
75073;SDS011;63652;51.526;5.080;2023-06-24T09:50:59;8.38;;;4.82;;
75073;SDS011;63652;51.526;5.080;2023-06-24T09:53:26;8.15;;;4.25;;
75073;SDS011;63652;51.526;5.080;2023-06-24T09:55:55;6.70;;;4.18;;
75073;SDS011;63652;51.526;5.080;2023-06-24T09:58:22;8.57;;;4.20;;
75073;SDS011;63652;51.526;5.080;2023-06-24T10:00:48;8.18;;;4.60;;
75073;SDS011;63652;51.526;5.080;2023-06-24T10:03:14;8.63;;;4.50;;
75073;SDS011;63652;51.526;5.080;2023-06-24T10:05:40;7.70;;;3.83;;
75073;SDS011;63652;51.526;5.080;2023-06-24T10:08:06;5.20;;;2.75;;
75073;SDS011;63652;51.526;5.080;2023-06-24T10:10:32;4.60;;;2.38;;
75073;SDS011;63652;51.526;5.080;2023-06-24T10:12:57;4.65;;;2.55;;
75073;SDS011;63652;51.526;5.080;2023-06-24T10:15:23;5.18;;;2.80;;
75073;SDS011;63652;51.526;5.080;2023-06-24T10:17:50;7.05;;;3.67;;
75073;SDS011;63652;51.526;5.080;2023-06-24T10:20:23;5.63;;;2.95;;
75073;SDS011;63652;51.526;5.080;2023-06-24T10:22:50;5.53;;;2.97;;
75073;SDS011;63652;51.526;5.080;2023-06-24T10:25:16;5.65;;;2.65;;
75073;SDS011;63652;51.526;5.080;2023-06-24T10:27:41;5.65;;;2.72;;
75073;SDS011;63652;51.526;5.080;2023-06-24T10:30:07;5.65;;;2.92;;
75073;SDS011;63652;51.526;5.080;2023-06-24T10:32:40;5.68;;;2.47;;
75073;SDS011;63652;51.526;5.080;2023-06-24T10:35:07;5.60;;;2.45;;
75073;SDS011;63652;51.526;5.080;2023-06-24T10:40:42;5.88;;;3.00;;
75073;SDS011;63652;51.526;5.080;2023-06-24T10:45:53;7.93;;;3.28;;
75073;SDS011;63652;51.526;5.080;2023-06-24T10:48:19;4.55;;;2.50;;
75073;SDS011;63652;51.526;5.080;2023-06-24T10:50:48;4.50;;;2.22;;
75073;SDS011;63652;51.526;5.080;2023-06-24T10:53:17;5.63;;;2.97;;
75073;SDS011;63652;51.526;5.080;2023-06-24T10:55:45;4.85;;;2.90;;
75073;SDS011;63652;51.526;5.080;2023-06-24T10:58:12;5.22;;;2.42;;
75073;SDS011;63652;51.526;5.080;2023-06-24T11:00:40;5.00;;;2.20;;
75073;SDS011;63652;51.526;5.080;2023-06-24T11:03:10;4.43;;;2.50;;
75073;SDS011;63652;51.526;5.080;2023-06-24T11:05:40;5.85;;;2.20;;
75073;SDS011;63652;51.526;5.080;2023-06-24T11:10:32;5.78;;;2.70;;
75073;SDS011;63652;51.526;5.080;2023-06-24T11:12:58;7.25;;;2.70;;
75073;SDS011;63652;51.526;5.080;2023-06-24T11:15:30;5.03;;;2.15;;
75073;SDS011;63652;51.526;5.080;2023-06-24T11:17:57;4.57;;;2.65;;
75073;SDS011;63652;51.526;5.080;2023-06-24T11:20:22;4.95;;;2.30;;
75073;SDS011;63652;51.526;5.080;2023-06-24T11:22:48;4.85;;;2.58;;
75073;SDS011;63652;51.526;5.080;2023-06-24T11:25:20;4.20;;;2.42;;
75073;SDS011;63652;51.526;5.080;2023-06-24T11:27:46;5.80;;;2.40;;
75073;SDS011;63652;51.526;5.080;2023-06-24T11:30:12;3.97;;;2.17;;
75073;SDS011;63652;51.526;5.080;2023-06-24T11:32:39;5.22;;;2.13;;
75073;SDS011;63652;51.526;5.080;2023-06-24T11:35:05;4.10;;;2.30;;
75073;SDS011;63652;51.526;5.080;2023-06-24T11:37:34;6.72;;;2.33;;
75073;SDS011;63652;51.526;5.080;2023-06-24T11:40:00;5.78;;;2.38;;
75073;SDS011;63652;51.526;5.080;2023-06-24T11:42:29;3.83;;;2.00;;
75073;SDS011;63652;51.526;5.080;2023-06-24T11:44:59;3.92;;;1.92;;
75073;SDS011;63652;51.526;5.080;2023-06-24T11:47:25;5.30;;;2.47;;
75073;SDS011;63652;51.526;5.080;2023-06-24T11:49:51;5.18;;;2.47;;
75073;SDS011;63652;51.526;5.080;2023-06-24T11:52:18;4.13;;;2.03;;
75073;SDS011;63652;51.526;5.080;2023-06-24T11:54:44;5.50;;;2.03;;
75073;SDS011;63652;51.526;5.080;2023-06-24T11:57:15;5.50;;;2.17;;
75073;SDS011;63652;51.526;5.080;2023-06-24T11:59:41;3.35;;;1.92;;
75073;SDS011;63652;51.526;5.080;2023-06-24T12:02:07;4.28;;;1.75;;
75073;SDS011;63652;51.526;5.080;2023-06-24T12:04:38;6.82;;;1.88;;
75073;SDS011;63652;51.526;5.080;2023-06-24T12:07:08;3.40;;;2.10;;
75073;SDS011;63652;51.526;5.080;2023-06-24T12:09:33;5.05;;;2.00;;
75073;SDS011;63652;51.526;5.080;2023-06-24T12:11:59;4.68;;;2.30;;
75073;SDS011;63652;51.526;5.080;2023-06-24T12:14:24;6.18;;;2.63;;
75073;SDS011;63652;51.526;5.080;2023-06-24T12:16:50;5.35;;;2.25;;
75073;SDS011;63652;51.526;5.080;2023-06-24T12:19:15;3.65;;;2.00;;
75073;SDS011;63652;51.526;5.080;2023-06-24T12:21:40;4.78;;;2.42;;
75073;SDS011;63652;51.526;5.080;2023-06-24T12:24:06;5.75;;;2.20;;
75073;SDS011;63652;51.526;5.080;2023-06-24T12:26:31;4.10;;;2.22;;
75073;SDS011;63652;51.526;5.080;2023-06-24T12:28:57;3.80;;;1.73;;
75073;SDS011;63652;51.526;5.080;2023-06-24T12:31:23;3.85;;;1.88;;
75073;SDS011;63652;51.526;5.080;2023-06-24T12:33:49;3.72;;;2.00;;
75073;SDS011;63652;51.526;5.080;2023-06-24T12:36:16;4.70;;;2.17;;
75073;SDS011;63652;51.526;5.080;2023-06-24T12:38:41;4.00;;;2.13;;
75073;SDS011;63652;51.526;5.080;2023-06-24T12:41:07;5.50;;;2.72;;
75073;SDS011;63652;51.526;5.080;2023-06-24T12:43:32;3.33;;;1.83;;
75073;SDS011;63652;51.526;5.080;2023-06-24T12:45:58;4.00;;;2.30;;
75073;SDS011;63652;51.526;5.080;2023-06-24T12:48:23;3.03;;;1.92;;
75073;SDS011;63652;51.526;5.080;2023-06-24T12:50:49;4.07;;;1.88;;
75073;SDS011;63652;51.526;5.080;2023-06-24T12:53:18;3.67;;;2.20;;
75073;SDS011;63652;51.526;5.080;2023-06-24T12:55:43;3.65;;;1.80;;
75073;SDS011;63652;51.526;5.080;2023-06-24T12:58:09;4.03;;;2.30;;
75073;SDS011;63652;51.526;5.080;2023-06-24T13:00:34;5.13;;;2.60;;
75073;SDS011;63652;51.526;5.080;2023-06-24T13:02:59;3.97;;;2.13;;
75073;SDS011;63652;51.526;5.080;2023-06-24T13:05:25;3.78;;;1.75;;
75073;SDS011;63652;51.526;5.080;2023-06-24T13:07:50;5.35;;;2.20;;
75073;SDS011;63652;51.526;5.080;2023-06-24T13:10:16;3.25;;;1.73;;
75073;SDS011;63652;51.526;5.080;2023-06-24T13:12:42;4.13;;;2.00;;
75073;SDS011;63652;51.526;5.080;2023-06-24T13:15:07;3.75;;;2.05;;
75073;SDS011;63652;51.526;5.080;2023-06-24T13:17:35;3.65;;;2.08;;
75073;SDS011;63652;51.526;5.080;2023-06-24T13:20:00;3.33;;;2.08;;
75073;SDS011;63652;51.526;5.080;2023-06-24T13:22:28;3.53;;;2.03;;
75073;SDS011;63652;51.526;5.080;2023-06-24T13:24:53;4.43;;;2.20;;
75073;SDS011;63652;51.526;5.080;2023-06-24T13:27:19;6.13;;;1.80;;
75073;SDS011;63652;51.526;5.080;2023-06-24T13:29:44;3.95;;;2.13;;
75073;SDS011;63652;51.526;5.080;2023-06-24T13:32:10;4.75;;;2.22;;
75073;SDS011;63652;51.526;5.080;2023-06-24T13:34:35;5.97;;;2.30;;
75073;SDS011;63652;51.526;5.080;2023-06-24T13:37:01;3.92;;;1.83;;
75073;SDS011;63652;51.526;5.080;2023-06-24T13:39:26;3.85;;;2.67;;
75073;SDS011;63652;51.526;5.080;2023-06-24T13:41:52;3.88;;;1.55;;
75073;SDS011;63652;51.526;5.080;2023-06-24T13:44:18;2.80;;;1.70;;
75073;SDS011;63652;51.526;5.080;2023-06-24T13:46:43;3.80;;;1.80;;
75073;SDS011;63652;51.526;5.080;2023-06-24T13:49:09;4.38;;;2.13;;
75073;SDS011;63652;51.526;5.080;2023-06-24T13:51:35;3.67;;;2.10;;
75073;SDS011;63652;51.526;5.080;2023-06-24T13:54:00;3.58;;;1.83;;
75073;SDS011;63652;51.526;5.080;2023-06-24T13:56:26;3.85;;;1.80;;
75073;SDS011;63652;51.526;5.080;2023-06-24T13:58:52;3.85;;;2.05;;
75073;SDS011;63652;51.526;5.080;2023-06-24T14:01:18;4.00;;;1.80;;
75073;SDS011;63652;51.526;5.080;2023-06-24T14:03:44;4.25;;;1.83;;
75073;SDS011;63652;51.526;5.080;2023-06-24T14:06:10;4.65;;;1.80;;
75073;SDS011;63652;51.526;5.080;2023-06-24T14:08:39;4.70;;;1.85;;
75073;SDS011;63652;51.526;5.080;2023-06-24T14:11:04;3.45;;;1.77;;
75073;SDS011;63652;51.526;5.080;2023-06-24T14:13:30;3.53;;;1.83;;
75073;SDS011;63652;51.526;5.080;2023-06-24T14:15:56;3.35;;;1.70;;
75073;SDS011;63652;51.526;5.080;2023-06-24T14:18:22;4.25;;;2.10;;
75073;SDS011;63652;51.526;5.080;2023-06-24T14:20:48;3.92;;;1.85;;
75073;SDS011;63652;51.526;5.080;2023-06-24T14:23:13;4.68;;;2.63;;
75073;SDS011;63652;51.526;5.080;2023-06-24T14:25:38;3.97;;;1.85;;
75073;SDS011;63652;51.526;5.080;2023-06-24T14:28:04;4.57;;;1.60;;
75073;SDS011;63652;51.526;5.080;2023-06-24T14:30:30;2.85;;;1.45;;
75073;SDS011;63652;51.526;5.080;2023-06-24T14:32:56;3.38;;;1.83;;
75073;SDS011;63652;51.526;5.080;2023-06-24T14:35:21;3.90;;;2.25;;
75073;SDS011;63652;51.526;5.080;2023-06-24T14:37:47;4.05;;;2.00;;
75073;SDS011;63652;51.526;5.080;2023-06-24T14:40:12;4.18;;;2.00;;
75073;SDS011;63652;51.526;5.080;2023-06-24T14:42:38;5.05;;;2.03;;
75073;SDS011;63652;51.526;5.080;2023-06-24T14:45:03;5.55;;;2.60;;
75073;SDS011;63652;51.526;5.080;2023-06-24T14:47:29;3.85;;;1.67;;
75073;SDS011;63652;51.526;5.080;2023-06-24T14:49:54;4.25;;;2.00;;
75073;SDS011;63652;51.526;5.080;2023-06-24T14:52:19;2.92;;;1.45;;
75073;SDS011;63652;51.526;5.080;2023-06-24T14:54:46;3.97;;;2.42;;
75073;SDS011;63652;51.526;5.080;2023-06-24T14:57:11;3.60;;;1.80;;
75073;SDS011;63652;51.526;5.080;2023-06-24T14:59:37;3.75;;;1.90;;
75073;SDS011;63652;51.526;5.080;2023-06-24T15:02:02;3.58;;;1.77;;